createdAt,value
2018-11-02T00:00:09.901Z,100364.72
2018-11-02T00:02:39.756Z,100367.70
2018-11-02T00:05:09.715Z,100374.16
2018-11-02T00:07:39.646Z,100383.73
2018-11-02T00:10:09.648Z,100387.98
2018-11-02T00:12:39.547Z,100389.48
2018-11-02T00:15:09.686Z,100394.55
2018-11-02T00:17:39.570Z,100390.95
2018-11-02T00:20:09.491Z,100385.44
2018-11-02T00:22:39.444Z,100381.30
2018-11-02T00:25:09.442Z,100362.77
2018-11-02T00:27:39.351Z,100348.51
2018-11-02T00:30:09.367Z,100352.42
2018-11-02T00:32:39.348Z,100371.17
2018-11-02T00:35:09.628Z,100378.08
2018-11-02T00:37:39.813Z,100383.14
2018-11-02T00:40:10.166Z,100387.66
2018-11-02T00:42:40.551Z,100392.49
2018-11-02T00:45:12.317Z,100402.04
2018-11-02T00:47:42.517Z,100412.40
2018-11-02T00:50:13.122Z,100420.45
2018-11-02T00:52:43.049Z,100424.93
2018-11-02T00:55:12.976Z,100418.39
2018-11-02T00:57:42.894Z,100417.01
2018-11-02T01:00:14.792Z,100420.92
2018-11-02T01:02:45.446Z,100423.69
2018-11-02T01:05:15.794Z,100418.62
2018-11-02T01:07:45.810Z,100421.61
2018-11-02T01:10:15.752Z,100421.84
2018-11-02T01:12:45.727Z,100423.45
2018-11-02T01:15:16.056Z,100419.53
2018-11-02T01:17:46.054Z,100421.14
2018-11-02T01:20:16.011Z,100437.13
2018-11-02T01:22:45.969Z,100447.84
2018-11-02T01:25:16.537Z,100456.58
2018-11-02T01:27:46.536Z,100461.78
2018-11-02T01:30:16.491Z,100465.55
2018-11-02T01:32:46.542Z,100463.25
2018-11-02T01:35:16.645Z,100468.09
2018-11-02T01:37:46.574Z,100465.55
2018-11-02T01:40:16.582Z,100470.75
2018-11-02T01:42:46.594Z,100472.36
2018-11-02T01:45:16.553Z,100472.36
2018-11-02T01:47:46.523Z,100477.78
2018-11-02T01:50:16.450Z,100477.55
2018-11-02T01:52:46.442Z,100484.45
2018-11-02T01:55:16.386Z,100493.86
2018-11-02T01:57:46.365Z,100500.77
2018-11-02T02:00:16.341Z,100501.36
2018-11-02T02:02:46.271Z,100509.06
2018-11-02T02:05:16.201Z,100502.84
2018-11-02T02:07:46.166Z,100509.75
2018-11-02T02:10:16.127Z,100519.78
2018-11-02T02:12:46.110Z,100520.58
2018-11-02T02:15:16.019Z,100514.59
2018-11-02T02:17:45.964Z,100528.63
2018-11-02T02:20:15.945Z,100535.54
2018-11-02T02:22:45.886Z,100536.92
2018-11-02T02:25:15.833Z,100538.89
2018-11-02T02:27:45.790Z,100543.59
2018-11-02T02:30:15.834Z,100544.98
2018-11-02T02:32:45.827Z,100548.56
2018-11-02T02:35:15.808Z,100556.26
2018-11-02T02:37:45.802Z,100561.55
2018-11-02T02:40:16.380Z,100559.94
2018-11-02T02:42:46.338Z,100565.00
2018-11-02T02:45:16.312Z,100560.62
2018-11-02T02:47:46.278Z,100568.92
2018-11-02T02:50:16.205Z,100569.28
2018-11-02T02:52:46.083Z,100573.42
2018-11-02T02:55:16.038Z,100583.09
2018-11-02T02:57:46.037Z,100583.88
2018-11-02T03:00:16.007Z,100590.78
2018-11-02T03:02:45.979Z,100603.45
2018-11-02T03:05:15.975Z,100610.35
2018-11-02T03:07:45.919Z,100618.88
2018-11-02T03:10:16.011Z,100619.70
2018-11-02T03:12:45.846Z,100621.63
2018-11-02T03:15:15.795Z,100618.08
2018-11-02T03:17:45.759Z,100625.91
2018-11-02T03:20:15.774Z,100622.09
2018-11-02T03:22:45.732Z,100629.36
2018-11-02T03:25:15.716Z,100628.53
2018-11-02T03:27:45.713Z,100627.15
2018-11-02T03:30:15.629Z,100632.44
2018-11-02T03:32:45.572Z,100639.12
2018-11-02T03:35:15.597Z,100634.97
2018-11-02T03:37:45.564Z,100638.30
2018-11-02T03:40:15.565Z,100646.94
2018-11-02T03:42:45.515Z,100646.24
2018-11-02T03:45:15.495Z,100663.27
2018-11-02T03:47:45.448Z,100669.47
2018-11-02T03:50:15.447Z,100672.91
2018-11-02T03:52:45.369Z,100678.18
2018-11-02T03:55:15.308Z,100680.23
2018-11-02T03:57:45.290Z,100680.19
2018-11-02T04:00:15.265Z,100682.59
2018-11-02T04:02:45.224Z,100685.89
2018-11-02T04:05:15.202Z,100691.38
2018-11-02T04:07:45.162Z,100696.55
2018-11-02T04:10:15.092Z,100704.44
2018-11-02T04:12:45.064Z,100706.58
2018-11-02T04:15:15.023Z,100713.92
2018-11-02T04:17:45.445Z,100714.70
2018-11-02T04:20:15.334Z,100721.56
2018-11-02T04:22:45.343Z,100720.38
2018-11-02T04:25:15.328Z,100735.48
2018-11-02T04:27:45.315Z,100737.40
2018-11-02T04:30:15.305Z,100744.80
2018-11-02T04:32:45.292Z,100748.89
2018-11-02T04:35:15.261Z,100765.63
2018-11-02T04:37:45.240Z,100775.45
2018-11-02T04:40:15.210Z,100780.88
2018-11-02T04:42:45.178Z,100780.24
2018-11-02T04:45:15.144Z,100788.14
2018-11-02T04:47:45.219Z,100794.97
2018-11-02T04:50:15.183Z,100797.62
2018-11-02T04:52:45.425Z,100802.18
2018-11-02T04:55:15.439Z,100812.59
2018-11-02T04:57:45.376Z,100816.89
2018-11-02T05:00:15.343Z,100822.81
2018-11-02T05:02:45.290Z,100823.78
2018-11-02T05:05:15.306Z,100833.83
2018-11-02T05:07:45.266Z,100838.86
2018-11-02T05:10:15.392Z,100843.88
2018-11-02T05:12:45.775Z,100852.39
2018-11-02T05:15:15.934Z,100851.25
2018-11-02T05:17:46.029Z,100850.91
2018-11-02T05:20:15.954Z,100863.00
2018-11-02T05:22:45.904Z,100870.37
2018-11-02T05:25:16.070Z,100869.41
2018-11-02T05:27:46.006Z,100876.20
2018-11-02T05:30:15.967Z,100876.92
2018-11-02T05:32:45.914Z,100880.98
2018-11-02T05:35:15.875Z,100893.53
2018-11-02T05:37:45.845Z,100890.46
2018-11-02T05:40:15.808Z,100894.84
2018-11-02T05:42:45.776Z,100904.14
2018-11-02T05:45:15.782Z,100909.66
2018-11-02T05:47:45.742Z,100910.55
2018-11-02T05:50:15.753Z,100908.44
2018-11-02T05:52:45.766Z,100913.23
2018-11-02T05:55:15.824Z,100925.72
2018-11-02T05:57:45.749Z,100942.56
2018-11-02T06:00:15.683Z,100942.91
2018-11-02T06:02:45.659Z,100943.70
2018-11-02T06:05:15.699Z,100942.91
2018-11-02T06:07:45.647Z,100949.55
2018-11-02T06:10:15.664Z,100955.36
2018-11-02T06:12:45.649Z,100957.63
2018-11-02T06:15:15.580Z,100966.55
2018-11-02T06:17:45.554Z,100968.33
2018-11-02T06:20:15.581Z,100972.86
2018-11-02T06:22:45.549Z,100980.45
2018-11-02T06:25:15.516Z,100974.78
2018-11-02T06:27:45.455Z,100975.73
2018-11-02T06:30:15.377Z,100979.77
2018-11-02T06:32:45.393Z,100994.24
2018-11-02T06:35:15.348Z,100997.73
2018-11-02T06:37:45.450Z,101004.81
2018-11-02T06:40:15.498Z,101013.80
2018-11-02T06:42:45.460Z,101026.87
2018-11-02T06:45:15.509Z,101029.02
2018-11-02T06:47:45.481Z,101038.46
2018-11-02T06:50:15.521Z,101043.31
2018-11-02T06:52:45.639Z,101048.95
2018-11-02T06:55:15.669Z,101056.70
2018-11-02T06:57:45.633Z,101056.20
2018-11-02T07:00:15.608Z,101056.76
2018-11-02T07:02:45.571Z,101066.58
2018-11-02T07:05:15.576Z,101065.45
2018-11-02T07:07:45.557Z,101068.95
2018-11-02T07:10:15.974Z,101068.87
2018-11-02T07:12:46.052Z,101064.20
2018-11-02T07:15:16.025Z,101071.88
2018-11-02T07:17:46.062Z,101076.58
2018-11-02T07:20:16.035Z,101080.95
2018-11-02T07:22:46.010Z,101089.20
2018-11-02T07:25:15.963Z,101080.07
2018-11-02T07:27:45.902Z,101088.63
2018-11-02T07:30:15.888Z,101090.50
2018-11-02T07:32:45.962Z,101097.38
2018-11-02T07:35:15.922Z,101093.75
2018-11-02T07:37:45.968Z,101100.33
2018-11-02T07:40:15.970Z,101104.95
2018-11-02T07:42:45.879Z,101109.83
2018-11-02T07:45:15.896Z,101114.70
2018-11-02T07:47:45.923Z,101112.94
2018-11-02T07:50:15.776Z,101108.42
2018-11-02T07:52:45.736Z,101106.12
2018-11-02T07:55:16.063Z,101112.53
2018-11-02T07:57:46.067Z,101118.72
2018-11-02T08:00:17.245Z,101124.89
2018-11-02T08:02:47.814Z,101124.78
2018-11-02T08:05:17.803Z,101129.56
2018-11-02T08:07:47.775Z,101123.37
2018-11-02T08:10:17.671Z,101123.72
2018-11-02T08:12:47.643Z,101125.94
2018-11-02T08:15:17.619Z,101127.02
2018-11-02T08:17:47.913Z,101125.92
2018-11-02T08:20:17.783Z,101123.69
2018-11-02T08:22:47.684Z,101119.25
2018-11-02T08:25:17.637Z,101121.97
2018-11-02T08:27:47.555Z,101135.93
2018-11-02T08:30:17.557Z,101138.86
2018-11-02T08:32:47.465Z,101153.09
2018-11-02T08:35:17.368Z,101146.59
2018-11-02T08:37:47.300Z,101152.51
2018-11-02T08:40:17.369Z,101156.38
2018-11-02T08:42:47.227Z,101154.52
2018-11-02T08:45:17.087Z,101156.09
2018-11-02T08:47:46.989Z,101160.53
2018-11-02T08:50:17.047Z,101158.05
2018-11-02T08:52:46.972Z,101153.14
2018-11-02T08:55:16.943Z,101158.53
2018-11-02T08:57:46.963Z,101164.27
2018-11-02T09:00:16.812Z,101170.88
2018-11-02T09:02:46.715Z,101170.92
2018-11-02T09:05:16.677Z,101168.55
2018-11-02T09:07:46.718Z,101164.29
2018-11-02T09:10:16.642Z,101176.31
2018-11-02T09:12:46.626Z,101187.30
2018-11-02T09:15:16.566Z,101185.59
2018-11-02T09:17:46.511Z,101191.59
2018-11-02T09:20:16.683Z,101183.77
2018-11-02T09:22:46.606Z,101187.49
2018-11-02T09:25:16.672Z,101194.89
2018-11-02T09:27:46.692Z,101201.92
2018-11-02T09:30:17.367Z,101205.99
2018-11-02T09:32:47.319Z,101210.86
2018-11-02T09:35:17.287Z,101210.19
2018-11-02T09:37:47.313Z,101224.50
2018-11-02T09:40:17.349Z,101221.06
2018-11-02T09:42:47.381Z,101220.83
2018-11-02T09:45:17.259Z,101225.80
2018-11-02T09:47:47.272Z,101232.95
2018-11-02T09:50:17.239Z,101228.22
2018-11-02T09:52:47.212Z,101235.72
2018-11-02T09:55:17.353Z,101238.14
2018-11-02T09:57:48.042Z,101248.30
2018-11-02T10:00:17.947Z,101258.47
2018-11-02T10:02:47.872Z,101256.84
2018-11-02T10:05:17.872Z,101260.76
2018-11-02T10:07:47.838Z,101264.20
2018-11-02T10:10:17.829Z,101267.64
2018-11-02T10:12:47.764Z,101268.06
2018-11-02T10:15:17.680Z,101270.36
2018-11-02T10:17:47.719Z,101272.17
2018-11-02T10:20:17.711Z,101271.11
2018-11-02T10:22:47.719Z,101269.48
2018-11-02T10:25:17.700Z,101281.45
2018-11-02T10:27:47.789Z,101280.42
2018-11-02T10:30:17.782Z,101276.35
2018-11-02T10:32:50.980Z,101280.27
2018-11-02T10:35:21.310Z,101283.62
2018-11-02T10:37:51.339Z,101301.84
2018-11-02T10:40:21.738Z,101299.31
2018-11-02T10:42:58.919Z,101309.23
2018-11-02T10:45:34.428Z,101299.20
2018-11-02T10:48:06.087Z,101309.37
2018-11-02T10:50:35.956Z,101304.00
2018-11-02T10:53:06.092Z,101310.48
2018-11-02T10:55:36.232Z,101308.67
2018-11-02T10:58:06.520Z,101308.01
2018-11-02T11:00:41.519Z,101301.48
2018-11-02T11:03:11.442Z,101309.68
2018-11-02T11:05:41.433Z,101315.45
2018-11-02T11:08:11.437Z,101320.91
2018-11-02T11:10:41.429Z,101333.25
2018-11-02T11:13:11.871Z,101329.02
2018-11-02T11:15:41.472Z,101333.06
2018-11-02T11:18:11.509Z,101335.16
2018-11-02T11:20:41.452Z,101331.25
2018-11-02T11:23:11.444Z,101337.27
2018-11-02T11:25:41.463Z,101342.41
2018-11-02T11:28:11.479Z,101340.94
2018-11-02T11:30:41.554Z,101337.17
2018-11-02T11:33:11.571Z,101340.66
2018-11-02T11:35:41.579Z,101336.98
2018-11-02T11:38:11.658Z,101334.92
2018-11-02T11:40:41.735Z,101338.41
2018-11-02T11:43:11.737Z,101329.42
2018-11-02T11:45:41.729Z,101333.14
2018-11-02T11:48:11.723Z,101332.70
2018-11-02T11:50:41.678Z,101336.19
2018-11-02T11:53:11.678Z,101348.22
2018-11-02T11:55:41.672Z,101348.02
2018-11-02T11:58:11.730Z,101347.34
2018-11-02T12:00:41.738Z,101349.67
2018-11-02T12:03:11.908Z,101352.36
2018-11-02T12:05:41.930Z,101356.64
2018-11-02T12:08:11.957Z,101364.55
2018-11-02T12:10:42.045Z,101359.80
2018-11-02T12:13:12.123Z,101366.64
2018-11-02T12:15:42.224Z,101361.80
2018-11-02T12:18:12.190Z,101354.76
2018-11-02T12:20:42.248Z,101361.60
2018-11-02T12:23:12.280Z,101364.61
2018-11-02T12:25:42.204Z,101359.74
2018-11-02T12:28:12.232Z,101366.08
2018-11-02T12:30:42.260Z,101358.36
2018-11-02T12:33:12.336Z,101355.34
2018-11-02T12:35:42.416Z,101357.65
2018-11-02T12:38:12.404Z,101359.03
2018-11-02T12:40:42.415Z,101366.20
2018-11-02T12:43:12.451Z,101365.97
2018-11-02T12:45:42.411Z,101359.95
2018-11-02T12:48:12.418Z,101363.88
2018-11-02T12:50:42.431Z,101365.93
2018-11-02T12:53:12.473Z,101365.19
2018-11-02T12:55:42.501Z,101359.77
2018-11-02T12:58:12.498Z,101368.16
2018-11-02T13:00:42.479Z,101372.09
2018-11-02T13:03:12.504Z,101376.48
2018-11-02T13:05:42.479Z,101388.71
2018-11-02T13:08:12.548Z,101388.47
2018-11-02T13:10:42.554Z,101395.16
2018-11-02T13:13:12.619Z,101389.38
2018-11-02T13:15:42.563Z,101396.91
2018-11-02T13:18:12.587Z,101400.47
2018-11-02T13:20:42.613Z,101404.16
2018-11-02T13:23:12.625Z,101397.81
2018-11-02T13:25:42.738Z,101398.14
2018-11-02T13:28:12.608Z,101404.27
2018-11-02T13:30:43.097Z,101405.06
2018-11-02T13:33:12.936Z,101401.26
2018-11-02T13:35:42.980Z,101404.59
2018-11-02T13:38:13.039Z,101410.13
2018-11-02T13:40:43.037Z,101419.27
2018-11-02T13:43:13.132Z,101420.30
2018-11-02T13:45:43.047Z,101422.16
2018-11-02T13:48:13.099Z,101419.39
2018-11-02T13:50:43.191Z,101422.64
2018-11-02T13:53:13.153Z,101427.03
2018-11-02T13:55:43.135Z,101429.81
2018-11-02T13:58:13.090Z,101431.11
2018-11-02T14:00:43.139Z,101437.00
2018-11-02T14:03:13.144Z,101440.66
2018-11-02T14:05:43.186Z,101436.66
2018-11-02T14:08:13.283Z,101449.01
2018-11-02T14:10:43.387Z,101449.25
2018-11-02T14:13:13.514Z,101450.63
2018-11-02T14:15:43.511Z,101450.63
2018-11-02T14:18:13.887Z,101453.17
2018-11-02T14:20:43.830Z,101464.84
2018-11-02T14:23:13.945Z,101468.52
2018-11-02T14:25:44.896Z,101464.69
2018-11-02T14:28:14.892Z,101469.75
2018-11-02T14:30:44.998Z,101475.05
2018-11-02T14:33:15.045Z,101480.70
2018-11-02T14:35:45.120Z,101489.69
2018-11-02T14:38:15.204Z,101500.61
2018-11-02T14:40:45.352Z,101509.59
2018-11-02T14:43:15.414Z,101513.27
2018-11-02T14:45:45.516Z,101518.33
2018-11-02T14:48:15.811Z,101520.94
2018-11-02T14:50:45.800Z,101518.83
2018-11-02T14:53:15.812Z,101521.95
2018-11-02T14:55:45.819Z,101533.94
2018-11-02T14:58:15.829Z,101541.52
2018-11-02T15:00:45.815Z,101544.36
2018-11-02T15:03:15.784Z,101547.00
2018-11-02T15:05:45.823Z,101538.69
2018-11-02T15:08:15.870Z,101546.27
2018-11-02T15:10:45.883Z,101546.03
2018-11-02T15:13:15.872Z,101542.78
2018-11-02T15:15:45.911Z,101549.22
2018-11-02T15:18:16.055Z,101552.06
2018-11-02T15:20:46.031Z,101554.88
2018-11-02T15:23:16.058Z,101557.50
2018-11-02T15:25:46.087Z,101560.34
2018-11-02T15:28:16.123Z,101558.23
2018-11-02T15:30:46.111Z,101553.35
2018-11-02T15:33:16.070Z,101563.95
2018-11-02T15:35:48.522Z,101564.36
2018-11-02T15:38:18.539Z,101567.23
2018-11-02T15:40:48.601Z,101573.73
2018-11-02T15:43:18.661Z,101574.70
2018-11-02T15:45:48.607Z,101574.86
2018-11-02T15:48:18.623Z,101580.42
2018-11-02T15:50:48.631Z,101584.48
2018-11-02T15:53:18.819Z,101581.95
2018-11-02T15:55:48.802Z,101573.14
2018-11-02T15:58:18.796Z,101572.81
2018-11-02T16:00:48.881Z,101573.62
2018-11-02T16:03:18.920Z,101573.84
2018-11-02T16:05:48.987Z,101573.01
2018-11-02T16:08:18.995Z,101575.53
2018-11-02T16:10:49.028Z,101578.80
2018-11-02T16:13:19.098Z,101585.73
2018-11-02T16:15:49.076Z,101594.31
2018-11-02T16:18:19.113Z,101590.20
2018-11-02T16:20:49.170Z,101599.57
2018-11-02T16:23:19.162Z,101607.30
2018-11-02T16:25:49.120Z,101613.09
2018-11-02T16:28:19.147Z,101611.98
2018-11-02T16:30:49.136Z,101614.17
2018-11-02T16:33:19.186Z,101617.52
2018-11-02T16:35:49.355Z,101617.77
2018-11-02T16:38:19.430Z,101624.33
2018-11-02T16:40:49.494Z,101628.46
2018-11-02T16:43:19.518Z,101636.39
2018-11-02T16:45:49.623Z,101642.41
2018-11-02T16:48:19.574Z,101653.91
2018-11-02T16:50:49.449Z,101661.86
2018-11-02T16:53:19.946Z,101668.38
2018-11-02T17:07:10.809Z,101660.21
2018-11-02T17:09:40.811Z,101683.26
2018-11-02T17:15:23.876Z,101700.48
2018-11-02T17:18:06.150Z,101714.41
2018-11-02T17:29:54.901Z,101732.61
2018-11-02T17:32:25.498Z,101746.77
2018-11-02T17:35:17.545Z,101749.91
2018-11-02T17:38:00.096Z,101747.86
2018-11-02T17:40:49.777Z,101759.77
2018-11-02T17:43:38.470Z,101769.23
2018-11-02T17:46:20.710Z,101763.81
2018-11-02T17:49:02.400Z,101767.48
2018-11-02T17:51:45.175Z,101764.58
2018-11-02T17:54:27.675Z,101774.83
2018-11-02T17:56:58.132Z,101779.02
2018-11-02T17:59:28.320Z,101785.14
2018-11-02T18:01:58.272Z,101785.46
2018-11-02T18:04:28.307Z,101778.70
2018-11-02T18:07:10.390Z,101793.04
2018-11-02T18:09:52.374Z,101789.55
2018-11-02T18:12:34.711Z,101794.55
2018-11-02T18:15:16.378Z,101802.29
2018-11-02T18:17:57.918Z,101803.70
2018-11-02T18:20:40.153Z,101810.36
2018-11-02T18:23:10.192Z,101812.61
2018-11-02T18:25:52.428Z,101819.73
2018-11-02T18:28:33.962Z,101818.42
2018-11-02T18:31:03.965Z,101820.08
2018-11-02T18:33:33.984Z,101819.04
2018-11-02T18:36:16.523Z,101828.36
2018-11-02T18:38:59.280Z,101828.11
2018-11-02T18:41:40.966Z,101837.75
2018-11-02T18:44:22.917Z,101833.66
2018-11-02T18:46:53.196Z,101843.27
2018-11-02T18:49:35.218Z,101843.02
2018-11-02T18:52:17.106Z,101796.53
2018-11-02T18:54:59.657Z,101858.12
2018-11-02T18:57:42.121Z,101869.34
2018-11-02T19:00:23.937Z,101823.40
2018-11-02T19:02:53.997Z,101877.59
2018-11-02T19:05:24.254Z,101875.12
2018-11-02T19:08:06.400Z,101881.44
2018-11-02T19:10:48.744Z,101895.94
2018-11-02T19:13:31.678Z,101847.78
2018-11-02T19:16:01.793Z,101886.09
2018-11-02T19:18:43.850Z,101854.05
2018-11-02T19:21:14.480Z,101890.75
2018-11-02T19:23:56.969Z,101889.66
2018-11-02T19:26:39.708Z,101895.40
2018-11-02T19:29:22.347Z,101906.06
2018-11-02T19:31:52.391Z,101906.62
2018-11-02T19:34:34.820Z,101849.06
2018-11-02T19:37:16.593Z,101863.29
2018-11-02T19:39:59.107Z,101916.70
2018-11-02T19:42:41.337Z,101913.70
2018-11-02T19:45:23.712Z,101917.50
2018-11-02T19:48:06.470Z,101922.15
2018-11-02T19:50:49.306Z,101881.84
2018-11-02T19:53:31.550Z,101928.41
2018-11-02T19:56:13.344Z,101882.91
2018-11-02T19:58:55.914Z,101921.84
2018-11-02T20:01:37.783Z,101885.34
2018-11-02T20:04:20.502Z,101932.48
2018-11-02T20:07:08.901Z,101929.17
2018-11-02T20:09:51.702Z,101934.38
2018-11-02T20:12:34.281Z,101905.81
2018-11-02T20:15:17.618Z,101942.80
2018-11-02T20:17:59.519Z,101887.63
2018-11-02T20:20:42.032Z,101946.56
2018-11-02T20:23:24.096Z,101891.63
2018-11-02T20:26:06.935Z,101951.73
2018-11-02T20:28:49.411Z,101904.23
2018-11-02T20:31:31.294Z,101952.27
2018-11-02T20:34:13.696Z,101951.69
2018-11-02T20:36:55.359Z,101950.04
2018-11-02T20:39:37.601Z,101905.27
2018-11-02T20:42:20.361Z,101957.38
2018-11-02T20:44:50.412Z,101956.01
2018-11-02T20:50:24.518Z,101950.45
2018-11-02T20:52:54.653Z,101958.09
2018-11-02T20:55:37.269Z,101951.20
2018-11-02T20:58:19.756Z,101948.99
2018-11-02T21:00:49.809Z,101948.16
2018-11-02T21:03:31.199Z,101954.42
2018-11-02T21:06:01.184Z,101957.97
2018-11-02T21:08:31.325Z,101961.22
2018-11-02T21:11:01.187Z,101963.95
2018-11-02T21:13:31.290Z,101961.19
2018-11-02T21:16:01.384Z,101975.64
2018-11-02T21:18:43.403Z,101975.61
2018-11-02T21:21:26.078Z,101978.86
2018-11-02T21:24:08.877Z,101982.11
2018-11-02T21:26:38.859Z,101985.65
2018-11-02T21:29:20.876Z,101940.80
2018-11-02T21:32:03.633Z,101993.52
2018-11-02T21:34:46.081Z,102006.59
2018-11-02T21:37:28.239Z,101935.20
2018-11-02T21:40:13.602Z,101997.28
2018-11-02T21:42:55.513Z,101995.88
2018-11-02T21:45:37.151Z,101991.22
2018-11-02T21:48:19.014Z,101941.19
2018-11-02T21:51:00.661Z,101958.21
2018-11-02T21:53:30.764Z,101987.88
2018-11-02T21:56:13.260Z,101917.57
2018-11-02T21:58:43.948Z,101995.75
2018-11-02T22:01:26.168Z,102000.13
2018-11-02T22:03:57.266Z,102004.17
2018-11-02T22:06:27.266Z,101991.05
2018-11-02T22:09:09.560Z,101995.13
2018-11-02T22:11:39.245Z,102006.56
2018-11-02T22:14:21.055Z,101949.59
2018-11-02T22:16:51.447Z,102007.36
2018-11-02T22:19:21.541Z,102007.08
2018-11-02T22:21:51.502Z,102006.80
2018-11-02T22:24:33.169Z,101962.84
2018-11-02T22:27:04.500Z,102007.08
2018-11-02T22:29:34.437Z,102016.34
2018-11-02T22:32:04.454Z,102023.69
2018-11-02T22:34:34.468Z,102031.88
2018-11-02T22:37:04.591Z,102037.60
2018-11-02T22:39:34.563Z,102035.12
2018-11-02T22:42:04.599Z,102039.48
2018-11-02T22:44:34.618Z,102041.08
2018-11-02T22:47:16.143Z,102004.73
2018-11-02T22:49:46.204Z,102046.83
2018-11-02T22:52:28.165Z,102038.64
2018-11-02T22:55:15.751Z,101991.34
2018-11-02T22:57:45.746Z,102038.92
2018-11-02T23:00:28.212Z,102038.64
2018-11-02T23:02:58.383Z,102035.91
2018-11-02T23:05:28.466Z,102038.11
2018-11-02T23:08:10.535Z,101979.30
2018-11-02T23:10:40.582Z,102028.28
2018-11-02T23:13:22.487Z,102022.55
2018-11-02T23:16:04.610Z,102024.44
2018-11-02T23:18:35.011Z,102034.50
2018-11-02T23:21:17.139Z,102036.66
2018-11-02T23:23:59.098Z,102039.39
2018-11-02T23:26:47.080Z,102043.75
2018-11-02T23:29:17.323Z,102048.08
2018-11-02T23:31:47.220Z,102055.41
2018-11-02T23:34:18.146Z,102061.94
2018-11-02T23:36:48.160Z,102053.70
2018-11-02T23:39:18.148Z,102055.34
2018-11-02T23:41:48.191Z,102046.61
2018-11-02T23:44:18.180Z,102048.53
2018-11-02T23:46:48.238Z,102048.77
2018-11-02T23:49:18.226Z,102043.03
2018-11-02T23:52:00.482Z,102038.92
2018-11-02T23:54:42.823Z,101989.95
2018-11-02T23:57:24.617Z,102035.02
